CFG7LC EDDF-LEPA
Flight info
| Callsign | CFG7LC |
|---|---|
| Flight time | 1h 54m |
| Altitude | 35000 |
| Route | ANEKI2L/18 ANEKI Y163 HERBI Y164 MOPAN DCT LUTIX DCT BENOT DCT NEMOS DCT GEVEA DCT INCUS DCT BALSI DCT RETNO DCT TUPOX DCT MTG DCT DIVKO DCT VATIR DCT PIVUS N852 BODEQ/N0452F370 N852 VERSO L129 LUNIK |
| Aircraft | A320/M-SDE1E3FGHIJ1LORVWXYZ/LB1 |
Departure
| Time | 2026-05-06 13:33 |
|---|---|
| Airport | Frankfurt Main Airport (EDDF) |
Arrival
| Time | 2026-05-06 15:27 |
|---|---|
| Airport | Palma de Mallorca Airport (LEPA) |
| Time | Latitude | Longitude | Altitude | Speed | Heading |
|---|---|---|---|---|---|
| 2026-05-06 12:47 | 50.04814 | 8.57180 | 359 ft | 0 kts | 115° |
| 2026-05-06 13:18 | 50.04819 | 8.57164 | 363 ft | 3 kts | 114° |
| 2026-05-06 13:18 | 50.04830 | 8.57126 | 364 ft | 3 kts | 118° |
| 2026-05-06 13:19 | 50.04840 | 8.57098 | 357 ft | 4 kts | 126° |
| 2026-05-06 13:19 | 50.04856 | 8.57076 | 362 ft | 1 kts | 156° |
| 2026-05-06 13:19 | 50.04843 | 8.57075 | 362 ft | 4 kts | 192° |
| 2026-05-06 13:19 | 50.04820 | 8.57055 | 364 ft | 4 kts | 212° |
| 2026-05-06 13:20 | 50.04796 | 8.57036 | 356 ft | 4 kts | 205° |
| 2026-05-06 13:20 | 50.04791 | 8.57032 | 362 ft | 0 kts | 205° |
| 2026-05-06 13:25 | 50.04779 | 8.57024 | 359 ft | 5 kts | 204° |
| 2026-05-06 13:26 | 50.04723 | 8.56984 | 361 ft | 12 kts | 204° |
| 2026-05-06 13:26 | 50.04630 | 8.56920 | 356 ft | 16 kts | 199° |
| 2026-05-06 13:26 | 50.04548 | 8.56890 | 359 ft | 7 kts | 193° |
| 2026-05-06 13:26 | 50.04506 | 8.56874 | 359 ft | 6 kts | 194° |
| 2026-05-06 13:27 | 50.04448 | 8.56810 | 359 ft | 13 kts | 247° |
| 2026-05-06 13:27 | 50.04413 | 8.56668 | 364 ft | 15 kts | 250° |
| 2026-05-06 13:27 | 50.04373 | 8.56498 | 359 ft | 18 kts | 249° |
| 2026-05-06 13:27 | 50.04325 | 8.56301 | 362 ft | 21 kts | 250° |
| 2026-05-06 13:28 | 50.04272 | 8.56080 | 354 ft | 22 kts | 251° |
| 2026-05-06 13:28 | 50.04229 | 8.55899 | 356 ft | 19 kts | 250° |
| 2026-05-06 13:28 | 50.04177 | 8.55682 | 359 ft | 25 kts | 249° |
| 2026-05-06 13:28 | 50.04109 | 8.55396 | 358 ft | 28 kts | 250° |
| 2026-05-06 13:29 | 50.04042 | 8.55118 | 353 ft | 28 kts | 250° |
| 2026-05-06 13:29 | 50.03975 | 8.54834 | 351 ft | 29 kts | 250° |
| 2026-05-06 13:29 | 50.03903 | 8.54535 | 354 ft | 30 kts | 249° |
| 2026-05-06 13:29 | 50.03820 | 8.54281 | 353 ft | 25 kts | 233° |
| 2026-05-06 13:30 | 50.03753 | 8.54033 | 348 ft | 25 kts | 249° |
| 2026-05-06 13:30 | 50.03691 | 8.53768 | 346 ft | 27 kts | 250° |
| 2026-05-06 13:30 | 50.03630 | 8.53531 | 340 ft | 23 kts | 247° |
| 2026-05-06 13:30 | 50.03576 | 8.53305 | 340 ft | 23 kts | 250° |
| 2026-05-06 13:31 | 50.03519 | 8.53062 | 334 ft | 24 kts | 250° |
| 2026-05-06 13:31 | 50.03458 | 8.52827 | 334 ft | 18 kts | 247° |
| 2026-05-06 13:31 | 50.03417 | 8.52662 | 333 ft | 13 kts | 249° |
| 2026-05-06 13:31 | 50.03351 | 8.52595 | 333 ft | 12 kts | 179° |
| 2026-05-06 13:32 | 50.03280 | 8.52597 | 332 ft | 9 kts | 180° |
| 2026-05-06 13:32 | 50.03269 | 8.52597 | 335 ft | 0 kts | 180° |
| 2026-05-06 13:32 | 50.03038 | 8.52597 | 331 ft | 70 kts | 179° |
| 2026-05-06 13:32 | 50.02339 | 8.52602 | 331 ft | 129 kts | 180° |
| 2026-05-06 13:33 | 50.01278 | 8.52613 | 351 ft | 174 kts | 180° |
| 2026-05-06 13:33 | 50.00471 | 8.52637 | 678 ft | 175 kts | 179° |
| 2026-05-06 13:33 | 49.99246 | 8.52706 | 1354 ft | 177 kts | 179° |
| 2026-05-06 13:33 | 49.97973 | 8.52805 | 1802 ft | 194 kts | 178° |
| 2026-05-06 13:34 | 49.96551 | 8.52931 | 2082 ft | 216 kts | 179° |
| 2026-05-06 13:34 | 49.94954 | 8.53021 | 2365 ft | 242 kts | 180° |
| 2026-05-06 13:34 | 49.93220 | 8.53103 | 3035 ft | 248 kts | 179° |
| 2026-05-06 13:34 | 49.91524 | 8.53221 | 3712 ft | 240 kts | 179° |
| 2026-05-06 13:35 | 49.89874 | 8.53342 | 3931 ft | 236 kts | 179° |
| 2026-05-06 13:35 | 49.88238 | 8.53459 | 3991 ft | 235 kts | 179° |
| 2026-05-06 13:35 | 49.86602 | 8.53574 | 4084 ft | 238 kts | 179° |
| 2026-05-06 13:35 | 49.84938 | 8.53689 | 4836 ft | 242 kts | 179° |
| 2026-05-06 13:36 | 49.83173 | 8.53806 | 5241 ft | 264 kts | 178° |
| 2026-05-06 13:36 | 49.81307 | 8.53929 | 5964 ft | 271 kts | 178° |
| 2026-05-06 13:36 | 49.79409 | 8.54058 | 6792 ft | 275 kts | 178° |
| 2026-05-06 13:36 | 49.77489 | 8.54063 | 7583 ft | 278 kts | 186° |
| 2026-05-06 13:37 | 49.75551 | 8.53811 | 8372 ft | 281 kts | 186° |
| 2026-05-06 13:37 | 49.73587 | 8.53550 | 9146 ft | 285 kts | 186° |
| 2026-05-06 13:37 | 49.71602 | 8.53285 | 9912 ft | 288 kts | 186° |
| 2026-05-06 13:37 | 49.69598 | 8.53020 | 10688 ft | 290 kts | 186° |
| 2026-05-06 13:38 | 49.67616 | 8.52759 | 11448 ft | 292 kts | 186° |
| 2026-05-06 13:38 | 49.65543 | 8.52486 | 12220 ft | 294 kts | 186° |
| 2026-05-06 13:38 | 49.63515 | 8.52216 | 12656 ft | 297 kts | 186° |
| 2026-05-06 13:38 | 49.61375 | 8.51930 | 12784 ft | 321 kts | 186° |
| 2026-05-06 13:39 | 49.59062 | 8.51620 | 12805 ft | 343 kts | 186° |
| 2026-05-06 13:39 | 49.56654 | 8.51299 | 12804 ft | 350 kts | 186° |
| 2026-05-06 13:39 | 49.54223 | 8.50975 | 12810 ft | 351 kts | 186° |
| 2026-05-06 13:39 | 49.51783 | 8.50657 | 12812 ft | 351 kts | 185° |
| 2026-05-06 13:40 | 49.49346 | 8.50342 | 12813 ft | 351 kts | 185° |
| 2026-05-06 13:40 | 49.46912 | 8.50025 | 12813 ft | 351 kts | 185° |
| 2026-05-06 13:40 | 49.44455 | 8.49703 | 13273 ft | 356 kts | 186° |
| 2026-05-06 13:40 | 49.41989 | 8.49377 | 13980 ft | 358 kts | 186° |
| 2026-05-06 13:41 | 49.39491 | 8.49051 | 14639 ft | 361 kts | 185° |
| 2026-05-06 13:41 | 49.36978 | 8.48726 | 15247 ft | 364 kts | 185° |
| 2026-05-06 13:41 | 49.34437 | 8.48400 | 15855 ft | 367 kts | 185° |
| 2026-05-06 13:41 | 49.31880 | 8.48069 | 16437 ft | 370 kts | 185° |
| 2026-05-06 13:42 | 49.29308 | 8.47734 | 17002 ft | 373 kts | 185° |
| 2026-05-06 13:42 | 49.26741 | 8.47399 | 17553 ft | 376 kts | 186° |
| 2026-05-06 13:42 | 49.24127 | 8.47056 | 18110 ft | 378 kts | 186° |
| 2026-05-06 13:42 | 49.21491 | 8.46711 | 18653 ft | 382 kts | 186° |
| 2026-05-06 13:43 | 49.18805 | 8.46360 | 19201 ft | 385 kts | 186° |
| 2026-05-06 13:43 | 49.16161 | 8.46018 | 19728 ft | 387 kts | 186° |
| 2026-05-06 13:43 | 49.13467 | 8.45672 | 20249 ft | 390 kts | 186° |
| 2026-05-06 13:43 | 49.10747 | 8.45322 | 20738 ft | 393 kts | 186° |
| 2026-05-06 13:44 | 49.08011 | 8.44964 | 21213 ft | 396 kts | 186° |
| 2026-05-06 13:44 | 49.05276 | 8.44378 | 21665 ft | 398 kts | 193° |
| 2026-05-06 13:44 | 49.02568 | 8.43431 | 22112 ft | 401 kts | 193° |
| 2026-05-06 13:44 | 48.99844 | 8.42477 | 22554 ft | 403 kts | 193° |
| 2026-05-06 13:45 | 48.97100 | 8.41522 | 22970 ft | 406 kts | 193° |
| 2026-05-06 13:45 | 48.91552 | 8.39588 | 23785 ft | 411 kts | 193° |
| 2026-05-06 13:45 | 48.88757 | 8.38617 | 24173 ft | 413 kts | 193° |
| 2026-05-06 13:46 | 48.85940 | 8.37642 | 24543 ft | 416 kts | 193° |
| 2026-05-06 13:46 | 48.83118 | 8.36668 | 24915 ft | 417 kts | 193° |
| 2026-05-06 13:46 | 48.80281 | 8.35690 | 25300 ft | 418 kts | 193° |
| 2026-05-06 13:46 | 48.77434 | 8.34702 | 25662 ft | 420 kts | 194° |
| 2026-05-06 13:47 | 48.74621 | 8.33695 | 26011 ft | 421 kts | 194° |
| 2026-05-06 13:47 | 48.71762 | 8.32647 | 26348 ft | 423 kts | 194° |
| 2026-05-06 13:47 | 48.68901 | 8.31589 | 26666 ft | 424 kts | 194° |
| 2026-05-06 13:47 | 48.66026 | 8.30526 | 27004 ft | 425 kts | 194° |
| 2026-05-06 13:48 | 48.63146 | 8.29465 | 27316 ft | 426 kts | 194° |
| 2026-05-06 13:48 | 48.60262 | 8.28411 | 27620 ft | 428 kts | 194° |
| 2026-05-06 13:48 | 48.57360 | 8.27357 | 27913 ft | 429 kts | 194° |
| 2026-05-06 13:48 | 48.54451 | 8.26304 | 28195 ft | 430 kts | 194° |
| 2026-05-06 13:49 | 48.51535 | 8.25251 | 28472 ft | 431 kts | 194° |
| 2026-05-06 13:49 | 48.48614 | 8.24198 | 28729 ft | 432 kts | 194° |
| 2026-05-06 13:49 | 48.45691 | 8.23135 | 28988 ft | 433 kts | 194° |
| 2026-05-06 13:49 | 48.42756 | 8.22057 | 29233 ft | 434 kts | 194° |
| 2026-05-06 13:50 | 48.39859 | 8.20992 | 29462 ft | 434 kts | 194° |
| 2026-05-06 13:50 | 48.36919 | 8.19917 | 29694 ft | 435 kts | 194° |
| 2026-05-06 13:50 | 48.33982 | 8.18848 | 29987 ft | 434 kts | 194° |
| 2026-05-06 13:50 | 48.31050 | 8.17784 | 30293 ft | 432 kts | 194° |
| 2026-05-06 13:51 | 48.28127 | 8.16724 | 30586 ft | 431 kts | 194° |
| 2026-05-06 13:51 | 48.25229 | 8.15585 | 30849 ft | 430 kts | 199° |
| 2026-05-06 13:51 | 48.22466 | 8.13866 | 31108 ft | 429 kts | 207° |
| 2026-05-06 13:51 | 48.19793 | 8.11869 | 31376 ft | 429 kts | 206° |
| 2026-05-06 13:52 | 48.17125 | 8.09886 | 31650 ft | 428 kts | 206° |
| 2026-05-06 13:52 | 48.14458 | 8.07911 | 31907 ft | 427 kts | 206° |
| 2026-05-06 13:52 | 48.11794 | 8.05944 | 32178 ft | 426 kts | 206° |
| 2026-05-06 13:52 | 48.09137 | 8.03988 | 32450 ft | 426 kts | 206° |
| 2026-05-06 13:53 | 48.06479 | 8.02037 | 32708 ft | 425 kts | 206° |
| 2026-05-06 13:53 | 48.03854 | 8.00112 | 32969 ft | 424 kts | 206° |
| 2026-05-06 13:53 | 48.01208 | 7.98170 | 33233 ft | 423 kts | 206° |
| 2026-05-06 13:53 | 47.98571 | 7.96231 | 33489 ft | 423 kts | 206° |
| 2026-05-06 13:54 | 47.95928 | 7.94289 | 33744 ft | 422 kts | 207° |
| 2026-05-06 13:54 | 47.93297 | 7.92355 | 33988 ft | 421 kts | 206° |
| 2026-05-06 13:54 | 47.90667 | 7.90428 | 34241 ft | 421 kts | 206° |
| 2026-05-06 13:54 | 47.88041 | 7.88509 | 34453 ft | 421 kts | 206° |
| 2026-05-06 13:55 | 47.85408 | 7.86593 | 34669 ft | 421 kts | 206° |
| 2026-05-06 13:55 | 47.82776 | 7.84684 | 34831 ft | 422 kts | 206° |
| 2026-05-06 13:55 | 47.77489 | 7.80838 | 34876 ft | 423 kts | 206° |
| 2026-05-06 13:56 | 47.72200 | 7.76983 | 34877 ft | 423 kts | 206° |
| 2026-05-06 13:56 | 47.66907 | 7.73150 | 34887 ft | 424 kts | 206° |
| 2026-05-06 13:57 | 47.61638 | 7.69337 | 34887 ft | 423 kts | 206° |
| 2026-05-06 13:57 | 47.56339 | 7.65511 | 34886 ft | 423 kts | 206° |
| 2026-05-06 13:58 | 47.51035 | 7.61692 | 34889 ft | 424 kts | 206° |
| 2026-05-06 13:58 | 47.45716 | 7.57875 | 34894 ft | 424 kts | 206° |
| 2026-05-06 13:59 | 47.40411 | 7.54076 | 34895 ft | 424 kts | 206° |
| 2026-05-06 13:59 | 47.35135 | 7.50309 | 34899 ft | 424 kts | 206° |
| 2026-05-06 14:00 | 47.29769 | 7.46484 | 34900 ft | 424 kts | 206° |
| 2026-05-06 14:00 | 47.24441 | 7.42690 | 34897 ft | 423 kts | 206° |
| 2026-05-06 14:01 | 47.19226 | 7.38943 | 34896 ft | 423 kts | 210° |
| 2026-05-06 14:01 | 47.14645 | 7.33579 | 34894 ft | 423 kts | 228° |
| 2026-05-06 14:02 | 47.10957 | 7.26818 | 34892 ft | 424 kts | 230° |
| 2026-05-06 14:02 | 47.07285 | 7.20055 | 34892 ft | 424 kts | 230° |
| 2026-05-06 14:03 | 47.03601 | 7.13293 | 34889 ft | 424 kts | 230° |
| 2026-05-06 14:03 | 46.99937 | 7.06593 | 34885 ft | 424 kts | 230° |
| 2026-05-06 14:04 | 46.96247 | 6.99856 | 34885 ft | 424 kts | 230° |
| 2026-05-06 14:04 | 46.92535 | 6.93111 | 34888 ft | 425 kts | 230° |
| 2026-05-06 14:05 | 46.88277 | 6.87164 | 34894 ft | 424 kts | 219° |
| 2026-05-06 14:05 | 46.83696 | 6.81708 | 34898 ft | 425 kts | 219° |
| 2026-05-06 14:06 | 46.79142 | 6.76304 | 34902 ft | 425 kts | 219° |
| 2026-05-06 14:06 | 46.74546 | 6.70855 | 34910 ft | 425 kts | 219° |
| 2026-05-06 14:07 | 46.69952 | 6.65404 | 34915 ft | 425 kts | 219° |
| 2026-05-06 14:07 | 46.65357 | 6.59966 | 34918 ft | 426 kts | 219° |
| 2026-05-06 14:08 | 46.60746 | 6.54516 | 34920 ft | 426 kts | 219° |
| 2026-05-06 14:08 | 46.56132 | 6.49083 | 34922 ft | 427 kts | 218° |
| 2026-05-06 14:09 | 46.51515 | 6.43665 | 34926 ft | 427 kts | 218° |
| 2026-05-06 14:09 | 46.46893 | 6.38246 | 34933 ft | 427 kts | 218° |
| 2026-05-06 14:10 | 46.42288 | 6.32875 | 34925 ft | 427 kts | 218° |
| 2026-05-06 14:10 | 46.37653 | 6.27467 | 34929 ft | 428 kts | 218° |
| 2026-05-06 14:11 | 46.33011 | 6.22057 | 34932 ft | 428 kts | 218° |
| 2026-05-06 14:11 | 46.28340 | 6.16685 | 34940 ft | 429 kts | 215° |
| 2026-05-06 14:12 | 46.23004 | 6.12911 | 34940 ft | 429 kts | 196° |
| 2026-05-06 14:12 | 46.17120 | 6.11384 | 34938 ft | 430 kts | 190° |
| 2026-05-06 14:13 | 46.11196 | 6.10069 | 34939 ft | 431 kts | 190° |
| 2026-05-06 14:13 | 46.05263 | 6.08753 | 34946 ft | 431 kts | 190° |
| 2026-05-06 14:14 | 45.99361 | 6.07449 | 34951 ft | 431 kts | 190° |
| 2026-05-06 14:14 | 45.93417 | 6.06129 | 34953 ft | 432 kts | 190° |
| 2026-05-06 14:15 | 45.87483 | 6.04827 | 34951 ft | 431 kts | 190° |
| 2026-05-06 14:15 | 45.81547 | 6.03516 | 34950 ft | 431 kts | 190° |
| 2026-05-06 14:16 | 45.75621 | 6.02206 | 34951 ft | 431 kts | 190° |
| 2026-05-06 14:16 | 45.69691 | 6.00900 | 34954 ft | 431 kts | 190° |
| 2026-05-06 14:17 | 45.63765 | 5.99588 | 34950 ft | 431 kts | 190° |
| 2026-05-06 14:17 | 45.57838 | 5.98285 | 34948 ft | 431 kts | 190° |
| 2026-05-06 14:18 | 45.51914 | 5.96986 | 34951 ft | 431 kts | 190° |
| 2026-05-06 14:18 | 45.45991 | 5.95647 | 34945 ft | 431 kts | 192° |
| 2026-05-06 14:19 | 45.41115 | 5.94201 | 34946 ft | 430 kts | 194° |
| 2026-05-06 14:19 | 45.34336 | 5.91930 | 34949 ft | 430 kts | 194° |
| 2026-05-06 14:20 | 45.28501 | 5.90037 | 34947 ft | 430 kts | 194° |
| 2026-05-06 14:20 | 45.23638 | 5.88523 | 34953 ft | 430 kts | 193° |
| 2026-05-06 14:21 | 45.17791 | 5.86732 | 34944 ft | 430 kts | 193° |
| 2026-05-06 14:21 | 45.11942 | 5.84939 | 34943 ft | 429 kts | 194° |
| 2026-05-06 14:22 | 45.06105 | 5.83133 | 34944 ft | 429 kts | 194° |
| 2026-05-06 14:22 | 45.00271 | 5.81333 | 34947 ft | 429 kts | 194° |
| 2026-05-06 14:23 | 44.94428 | 5.79543 | 34950 ft | 429 kts | 194° |
| 2026-05-06 14:23 | 44.88595 | 5.77748 | 34949 ft | 429 kts | 194° |
| 2026-05-06 14:24 | 44.82805 | 5.75960 | 34950 ft | 428 kts | 194° |
| 2026-05-06 14:24 | 44.76982 | 5.74188 | 34951 ft | 427 kts | 194° |
| 2026-05-06 14:25 | 44.71169 | 5.72419 | 34951 ft | 427 kts | 194° |
| 2026-05-06 14:25 | 44.65366 | 5.70645 | 34943 ft | 427 kts | 194° |
| 2026-05-06 14:26 | 44.59567 | 5.68878 | 34947 ft | 426 kts | 194° |
| 2026-05-06 14:26 | 44.53774 | 5.67116 | 34942 ft | 425 kts | 194° |
| 2026-05-06 14:27 | 44.47992 | 5.65357 | 34942 ft | 426 kts | 194° |
| 2026-05-06 14:27 | 44.42240 | 5.63614 | 34934 ft | 425 kts | 194° |
| 2026-05-06 14:28 | 44.36520 | 5.61549 | 34934 ft | 423 kts | 203° |
| 2026-05-06 14:28 | 44.31042 | 5.58540 | 34934 ft | 423 kts | 203° |
| 2026-05-06 14:29 | 44.25567 | 5.55537 | 34930 ft | 422 kts | 203° |
| 2026-05-06 14:29 | 44.20097 | 5.52551 | 34923 ft | 422 kts | 202° |
| 2026-05-06 14:30 | 44.14614 | 5.49561 | 34925 ft | 423 kts | 203° |
| 2026-05-06 14:30 | 44.09134 | 5.46571 | 34927 ft | 423 kts | 202° |
| 2026-05-06 14:31 | 44.03649 | 5.43586 | 34928 ft | 423 kts | 202° |
| 2026-05-06 14:31 | 43.98196 | 5.40638 | 34933 ft | 423 kts | 203° |
| 2026-05-06 14:32 | 43.92719 | 5.37674 | 34932 ft | 422 kts | 203° |
| 2026-05-06 14:32 | 43.87240 | 5.34712 | 34938 ft | 422 kts | 202° |
| 2026-05-06 14:33 | 43.81761 | 5.31762 | 34939 ft | 422 kts | 203° |
| 2026-05-06 14:33 | 43.76290 | 5.28814 | 34933 ft | 422 kts | 203° |
| 2026-05-06 14:34 | 43.70812 | 5.25865 | 34933 ft | 422 kts | 203° |
| 2026-05-06 14:34 | 43.65337 | 5.22924 | 34930 ft | 422 kts | 203° |
| 2026-05-06 14:35 | 43.59861 | 5.19993 | 34929 ft | 422 kts | 202° |
| 2026-05-06 14:35 | 43.54389 | 5.17075 | 34926 ft | 422 kts | 203° |
| 2026-05-06 14:36 | 43.48916 | 5.14159 | 34925 ft | 422 kts | 203° |
| 2026-05-06 14:36 | 43.43442 | 5.11245 | 34924 ft | 422 kts | 202° |
| 2026-05-06 14:37 | 43.38094 | 5.08100 | 34925 ft | 420 kts | 212° |
| 2026-05-06 14:37 | 43.33265 | 5.03616 | 34922 ft | 419 kts | 215° |
| 2026-05-06 14:38 | 43.28448 | 4.99076 | 34918 ft | 419 kts | 215° |
| 2026-05-06 14:38 | 43.23625 | 4.94554 | 34913 ft | 419 kts | 215° |
| 2026-05-06 14:39 | 43.18815 | 4.90035 | 34912 ft | 419 kts | 215° |
| 2026-05-06 14:39 | 43.13997 | 4.85516 | 34913 ft | 419 kts | 215° |
| 2026-05-06 14:40 | 43.09166 | 4.81011 | 34914 ft | 420 kts | 215° |
| 2026-05-06 14:40 | 43.04260 | 4.76666 | 34914 ft | 421 kts | 210° |
| 2026-05-06 14:41 | 42.99170 | 4.72804 | 34918 ft | 421 kts | 210° |
| 2026-05-06 14:41 | 42.94052 | 4.68919 | 34918 ft | 421 kts | 210° |
| 2026-05-06 14:42 | 42.88924 | 4.65037 | 34921 ft | 421 kts | 210° |
| 2026-05-06 14:42 | 42.83807 | 4.61175 | 34923 ft | 420 kts | 210° |
| 2026-05-06 14:43 | 42.78683 | 4.57313 | 34928 ft | 421 kts | 210° |
| 2026-05-06 14:43 | 42.73557 | 4.53464 | 34934 ft | 421 kts | 210° |
| 2026-05-06 14:44 | 42.68429 | 4.49608 | 34929 ft | 420 kts | 210° |
| 2026-05-06 14:45 | 42.60759 | 4.43860 | 34927 ft | 420 kts | 210° |
| 2026-05-06 14:45 | 42.55638 | 4.40035 | 34926 ft | 420 kts | 210° |
| 2026-05-06 14:46 | 42.50526 | 4.36220 | 34930 ft | 419 kts | 210° |
| 2026-05-06 14:46 | 42.45441 | 4.32433 | 34933 ft | 419 kts | 210° |
| 2026-05-06 14:47 | 42.40318 | 4.28636 | 34929 ft | 420 kts | 210° |
| 2026-05-06 14:47 | 42.35196 | 4.24841 | 34935 ft | 419 kts | 210° |
| 2026-05-06 14:48 | 42.30084 | 4.21051 | 34933 ft | 419 kts | 210° |
| 2026-05-06 14:48 | 42.24971 | 4.17276 | 34932 ft | 419 kts | 210° |
| 2026-05-06 14:49 | 42.19860 | 4.13510 | 34935 ft | 419 kts | 210° |
| 2026-05-06 14:49 | 42.14744 | 4.09742 | 34933 ft | 419 kts | 210° |
| 2026-05-06 14:50 | 42.09626 | 4.05977 | 34935 ft | 419 kts | 210° |
| 2026-05-06 14:50 | 42.04508 | 4.02221 | 34945 ft | 419 kts | 210° |
| 2026-05-06 14:51 | 41.99380 | 3.98471 | 34943 ft | 419 kts | 210° |
| 2026-05-06 14:51 | 41.94248 | 3.94742 | 34945 ft | 420 kts | 207° |
| 2026-05-06 14:52 | 41.88650 | 3.92479 | 34943 ft | 424 kts | 192° |
| 2026-05-06 14:52 | 41.82826 | 3.91157 | 34940 ft | 424 kts | 192° |
| 2026-05-06 14:53 | 41.77000 | 3.89821 | 34937 ft | 424 kts | 193° |
| 2026-05-06 14:53 | 41.71219 | 3.88480 | 34939 ft | 424 kts | 192° |
| 2026-05-06 14:54 | 41.65387 | 3.87141 | 34932 ft | 425 kts | 193° |
| 2026-05-06 14:54 | 41.59564 | 3.85801 | 34934 ft | 424 kts | 193° |
| 2026-05-06 14:54 | 41.56645 | 3.85128 | 35074 ft | 426 kts | 192° |
| 2026-05-06 14:55 | 41.53729 | 3.84462 | 35302 ft | 425 kts | 192° |
| 2026-05-06 14:55 | 41.50813 | 3.83795 | 35491 ft | 425 kts | 192° |
| 2026-05-06 14:55 | 41.47893 | 3.83131 | 35687 ft | 426 kts | 192° |
| 2026-05-06 14:55 | 41.44970 | 3.82465 | 35857 ft | 426 kts | 192° |
| 2026-05-06 14:56 | 41.42046 | 3.81795 | 36030 ft | 426 kts | 193° |
| 2026-05-06 14:56 | 41.39123 | 3.81122 | 36193 ft | 427 kts | 192° |
| 2026-05-06 14:56 | 41.36229 | 3.80459 | 36349 ft | 427 kts | 192° |
| 2026-05-06 14:56 | 41.33302 | 3.79790 | 36497 ft | 427 kts | 192° |
| 2026-05-06 14:57 | 41.30365 | 3.79116 | 36643 ft | 427 kts | 192° |
| 2026-05-06 14:57 | 41.27440 | 3.78452 | 36851 ft | 425 kts | 192° |
| 2026-05-06 14:57 | 41.24529 | 3.77792 | 36929 ft | 423 kts | 192° |
| 2026-05-06 14:58 | 41.18745 | 3.76473 | 36938 ft | 421 kts | 192° |
| 2026-05-06 14:58 | 41.13112 | 3.74572 | 36944 ft | 416 kts | 204° |
| 2026-05-06 14:59 | 41.07717 | 3.71768 | 36943 ft | 417 kts | 203° |
| 2026-05-06 14:59 | 41.02305 | 3.68990 | 36943 ft | 417 kts | 203° |
| 2026-05-06 15:00 | 40.96895 | 3.66210 | 36945 ft | 417 kts | 204° |
| 2026-05-06 15:00 | 40.91475 | 3.63431 | 36947 ft | 417 kts | 203° |
| 2026-05-06 15:01 | 40.86052 | 3.60660 | 36947 ft | 417 kts | 203° |
| 2026-05-06 15:01 | 40.80632 | 3.57893 | 36950 ft | 417 kts | 203° |
| 2026-05-06 15:02 | 40.75248 | 3.55135 | 36952 ft | 417 kts | 204° |
| 2026-05-06 15:02 | 40.69835 | 3.52368 | 36952 ft | 417 kts | 204° |
| 2026-05-06 15:03 | 40.64410 | 3.49613 | 36950 ft | 417 kts | 204° |
| 2026-05-06 15:03 | 40.58988 | 3.46862 | 36951 ft | 418 kts | 204° |
| 2026-05-06 15:03 | 40.56263 | 3.45480 | 36459 ft | 421 kts | 204° |
| 2026-05-06 15:04 | 40.54460 | 3.44565 | 36082 ft | 419 kts | 204° |
| 2026-05-06 15:04 | 40.51741 | 3.43185 | 35505 ft | 420 kts | 204° |
| 2026-05-06 15:04 | 40.49003 | 3.41800 | 34930 ft | 423 kts | 203° |
| 2026-05-06 15:04 | 40.46240 | 3.40441 | 34347 ft | 425 kts | 200° |
| 2026-05-06 15:05 | 40.42378 | 3.39461 | 33585 ft | 431 kts | 186° |
| 2026-05-06 15:05 | 40.39362 | 3.39489 | 33012 ft | 435 kts | 181° |
| 2026-05-06 15:05 | 40.37308 | 3.39605 | 32622 ft | 437 kts | 181° |
| 2026-05-06 15:05 | 40.34306 | 3.39777 | 32055 ft | 439 kts | 181° |
| 2026-05-06 15:06 | 40.31253 | 3.39955 | 31479 ft | 440 kts | 181° |
| 2026-05-06 15:06 | 40.28184 | 3.40135 | 30900 ft | 442 kts | 180° |
| 2026-05-06 15:06 | 40.25119 | 3.40314 | 30325 ft | 440 kts | 180° |
| 2026-05-06 15:06 | 40.22070 | 3.40490 | 29759 ft | 437 kts | 181° |
| 2026-05-06 15:07 | 40.19004 | 3.40667 | 29123 ft | 433 kts | 180° |
| 2026-05-06 15:07 | 40.16042 | 3.40838 | 28508 ft | 430 kts | 180° |
| 2026-05-06 15:07 | 40.13065 | 3.41009 | 27882 ft | 426 kts | 180° |
| 2026-05-06 15:07 | 40.10111 | 3.41175 | 27256 ft | 423 kts | 180° |
| 2026-05-06 15:08 | 40.07185 | 3.41337 | 26630 ft | 420 kts | 180° |
| 2026-05-06 15:08 | 40.04272 | 3.41497 | 26004 ft | 417 kts | 180° |
| 2026-05-06 15:08 | 40.01387 | 3.41662 | 25373 ft | 413 kts | 180° |
| 2026-05-06 15:08 | 39.98531 | 3.41825 | 24778 ft | 409 kts | 180° |
| 2026-05-06 15:09 | 39.95695 | 3.41988 | 24156 ft | 407 kts | 180° |
| 2026-05-06 15:09 | 39.92866 | 3.42149 | 23521 ft | 404 kts | 180° |
| 2026-05-06 15:09 | 39.90107 | 3.42305 | 22906 ft | 401 kts | 180° |
| 2026-05-06 15:09 | 39.87323 | 3.42457 | 22283 ft | 400 kts | 180° |
| 2026-05-06 15:10 | 39.84550 | 3.42612 | 21656 ft | 399 kts | 180° |
| 2026-05-06 15:10 | 39.81785 | 3.42769 | 21030 ft | 397 kts | 180° |
| 2026-05-06 15:10 | 39.79027 | 3.42925 | 20400 ft | 396 kts | 180° |
| 2026-05-06 15:10 | 39.76322 | 3.43078 | 19761 ft | 382 kts | 180° |
| 2026-05-06 15:11 | 39.73735 | 3.42884 | 19138 ft | 365 kts | 193° |
| 2026-05-06 15:11 | 39.71384 | 3.41877 | 18511 ft | 350 kts | 208° |
| 2026-05-06 15:11 | 39.69386 | 3.40194 | 17886 ft | 338 kts | 221° |
| 2026-05-06 15:11 | 39.67819 | 3.37999 | 17260 ft | 328 kts | 235° |
| 2026-05-06 15:12 | 39.66700 | 3.35458 | 16636 ft | 321 kts | 243° |
| 2026-05-06 15:12 | 39.65715 | 3.32888 | 16009 ft | 315 kts | 243° |
| 2026-05-06 15:12 | 39.64740 | 3.30363 | 15380 ft | 310 kts | 243° |
| 2026-05-06 15:12 | 39.63779 | 3.27880 | 14821 ft | 304 kts | 243° |
| 2026-05-06 15:13 | 39.62850 | 3.25483 | 14412 ft | 293 kts | 243° |
| 2026-05-06 15:13 | 39.61934 | 3.23118 | 14052 ft | 292 kts | 243° |
| 2026-05-06 15:13 | 39.61015 | 3.20740 | 13496 ft | 299 kts | 243° |
| 2026-05-06 15:13 | 39.60073 | 3.18302 | 12952 ft | 305 kts | 243° |
| 2026-05-06 15:14 | 39.59141 | 3.15895 | 12790 ft | 293 kts | 243° |
| 2026-05-06 15:14 | 39.58233 | 3.13548 | 12568 ft | 290 kts | 243° |
| 2026-05-06 15:14 | 39.57339 | 3.11255 | 12170 ft | 288 kts | 243° |
| 2026-05-06 15:14 | 39.56431 | 3.08935 | 11752 ft | 288 kts | 243° |
| 2026-05-06 15:15 | 39.55530 | 3.06615 | 11371 ft | 288 kts | 243° |
| 2026-05-06 15:15 | 39.54631 | 3.04297 | 10980 ft | 287 kts | 243° |
| 2026-05-06 15:15 | 39.53736 | 3.01986 | 10609 ft | 287 kts | 243° |
| 2026-05-06 15:15 | 39.52842 | 2.99679 | 10239 ft | 286 kts | 243° |
| 2026-05-06 15:16 | 39.51946 | 2.97377 | 9854 ft | 285 kts | 243° |
| 2026-05-06 15:16 | 39.51061 | 2.95113 | 9481 ft | 284 kts | 243° |
| 2026-05-06 15:16 | 39.50170 | 2.92835 | 9096 ft | 283 kts | 243° |
| 2026-05-06 15:16 | 39.49279 | 2.90557 | 8699 ft | 283 kts | 243° |
| 2026-05-06 15:17 | 39.48533 | 2.88214 | 8293 ft | 281 kts | 251° |
| 2026-05-06 15:17 | 39.47923 | 2.85813 | 7902 ft | 280 kts | 252° |
| 2026-05-06 15:17 | 39.47330 | 2.83416 | 7495 ft | 279 kts | 252° |
| 2026-05-06 15:17 | 39.46741 | 2.81038 | 7104 ft | 277 kts | 252° |
| 2026-05-06 15:18 | 39.46154 | 2.78668 | 6703 ft | 276 kts | 252° |
| 2026-05-06 15:18 | 39.45570 | 2.76307 | 6305 ft | 274 kts | 252° |
| 2026-05-06 15:18 | 39.44988 | 2.73959 | 5904 ft | 273 kts | 252° |
| 2026-05-06 15:18 | 39.44410 | 2.71628 | 5493 ft | 272 kts | 252° |
| 2026-05-06 15:19 | 39.43834 | 2.69307 | 5133 ft | 268 kts | 252° |
| 2026-05-06 15:19 | 39.43286 | 2.67092 | 5009 ft | 255 kts | 252° |
| 2026-05-06 15:19 | 39.42760 | 2.64967 | 4817 ft | 241 kts | 252° |
| 2026-05-06 15:19 | 39.42253 | 2.62920 | 4414 ft | 238 kts | 252° |
| 2026-05-06 15:20 | 39.41750 | 2.60888 | 4093 ft | 236 kts | 252° |
| 2026-05-06 15:20 | 39.41251 | 2.58877 | 3768 ft | 234 kts | 252° |
| 2026-05-06 15:20 | 39.40749 | 2.56874 | 3419 ft | 234 kts | 252° |
| 2026-05-06 15:20 | 39.40249 | 2.54883 | 3088 ft | 232 kts | 252° |
| 2026-05-06 15:21 | 39.39760 | 2.52905 | 2999 ft | 232 kts | 256° |
| 2026-05-06 15:21 | 39.39729 | 2.50845 | 3002 ft | 232 kts | 287° |
| 2026-05-06 15:21 | 39.40553 | 2.49102 | 3001 ft | 225 kts | 320° |
| 2026-05-06 15:21 | 39.41899 | 2.48264 | 3001 ft | 212 kts | 353° |
| 2026-05-06 15:22 | 39.43338 | 2.48457 | 3008 ft | 210 kts | 24° |
| 2026-05-06 15:22 | 39.44485 | 2.49579 | 3006 ft | 208 kts | 54° |
| 2026-05-06 15:22 | 39.45265 | 2.51167 | 3004 ft | 210 kts | 59° |
| 2026-05-06 15:22 | 39.46014 | 2.52755 | 3003 ft | 202 kts | 59° |
| 2026-05-06 15:23 | 39.46712 | 2.54223 | 2943 ft | 188 kts | 59° |
| 2026-05-06 15:23 | 39.47386 | 2.55641 | 2726 ft | 182 kts | 59° |
| 2026-05-06 15:23 | 39.48044 | 2.57021 | 2499 ft | 177 kts | 59° |
| 2026-05-06 15:23 | 39.48679 | 2.58357 | 2272 ft | 170 kts | 59° |
| 2026-05-06 15:24 | 39.49280 | 2.59621 | 2051 ft | 159 kts | 59° |
| 2026-05-06 15:24 | 39.49832 | 2.60781 | 1860 ft | 146 kts | 59° |
| 2026-05-06 15:24 | 39.50356 | 2.61886 | 1673 ft | 142 kts | 59° |
| 2026-05-06 15:24 | 39.50867 | 2.62969 | 1467 ft | 140 kts | 59° |
| 2026-05-06 15:25 | 39.51378 | 2.64034 | 1284 ft | 138 kts | 58° |
| 2026-05-06 15:25 | 39.51873 | 2.65083 | 1050 ft | 137 kts | 59° |
| 2026-05-06 15:25 | 39.52374 | 2.66131 | 839 ft | 136 kts | 59° |
| 2026-05-06 15:25 | 39.52870 | 2.67180 | 741 ft | 137 kts | 59° |
| 2026-05-06 15:26 | 39.53371 | 2.68229 | 554 ft | 137 kts | 59° |
| 2026-05-06 15:26 | 39.53868 | 2.69283 | 368 ft | 137 kts | 59° |
| 2026-05-06 15:26 | 39.54361 | 2.70331 | 203 ft | 137 kts | 59° |
| 2026-05-06 15:26 | 39.54861 | 2.71382 | 30 ft | 135 kts | 59° |
| 2026-05-06 15:27 | 39.55288 | 2.72280 | 25 ft | 100 kts | 58° |
| 2026-05-06 15:27 | 39.55571 | 2.72871 | 30 ft | 52 kts | 57° |
| 2026-05-06 15:27 | 39.55718 | 2.73214 | 27 ft | 36 kts | 77° |
| 2026-05-06 15:27 | 39.55713 | 2.73446 | 25 ft | 14 kts | 91° |
| 2026-05-06 15:28 | 39.55713 | 2.73465 | 25 ft | 0 kts | 93° |
| 2026-05-06 15:28 | 39.55713 | 2.73466 | 25 ft | 2 kts | 94° |
| 2026-05-06 15:28 | 39.55679 | 2.73525 | 27 ft | 11 kts | 167° |
| 2026-05-06 15:29 | 39.55598 | 2.73510 | 28 ft | 15 kts | 151° |
| 2026-05-06 15:29 | 39.55562 | 2.73543 | 29 ft | 1 kts | 145° |
| 2026-05-06 15:29 | 39.55559 | 2.73545 | 29 ft | 2 kts | 145° |
| 2026-05-06 15:29 | 39.55519 | 2.73577 | 30 ft | 11 kts | 148° |
| 2026-05-06 15:30 | 39.55475 | 2.73612 | 32 ft | 3 kts | 148° |
| 2026-05-06 15:30 | 39.55453 | 2.73630 | 33 ft | 6 kts | 148° |
| 2026-05-06 15:30 | 39.55398 | 2.73674 | 35 ft | 11 kts | 149° |
| 2026-05-06 15:30 | 39.55351 | 2.73712 | 35 ft | 6 kts | 150° |
| 2026-05-06 15:31 | 39.55301 | 2.73750 | 36 ft | 11 kts | 149° |
| 2026-05-06 15:31 | 39.55228 | 2.73809 | 36 ft | 10 kts | 149° |
| 2026-05-06 15:31 | 39.55177 | 2.73805 | 36 ft | 7 kts | 229° |
| 2026-05-06 15:32 | 39.55180 | 2.73711 | 36 ft | 4 kts | 262° |
| 2026-05-06 15:32 | 39.55160 | 2.73659 | 36 ft | 10 kts | 238° |
| 2026-05-06 15:32 | 39.55111 | 2.73562 | 36 ft | 16 kts | 237° |
| 2026-05-06 15:32 | 39.55062 | 2.73481 | 34 ft | 8 kts | 197° |
| 2026-05-06 15:33 | 39.55040 | 2.73487 | 35 ft | 3 kts | 175° |
| 2026-05-06 15:33 | 39.55019 | 2.73494 | 36 ft | 2 kts | 165° |
| 2026-05-06 15:33 | 39.55018 | 2.73494 | 36 ft | 0 kts | 165° |